Time;durP1;ratioP1;P1;durP2;ratioP2;P2;SDS_P1;SDS_P2;PMS_P1;PMS_P2;Temp;Humidity;BMP_temperature;BMP_pressure;BME280_temperature;BME280_humidity;BME280_pressure;Samples;Min_cycle;Max_cycle;Signal;HPM_P1;HPM_P2
2021/11/12 00:12:20;;;;;;;49.53;25.33;;;;;;;17.76;100.00;102094.28;5053943;28;20289;-52
2021/11/12 00:14:47;;;;;;;46.60;25.43;;;;;;;17.41;100.00;102081.91;5053528;28;20270;-52
2021/11/12 00:17:14;;;;;;;61.17;27.10;;;;;;;17.42;100.00;102085.44;5054078;28;20626;-53
2021/11/12 00:19:40;;;;;;;55.63;26.23;;;;;;;17.59;100.00;102085.81;5054792;28;20296;-53
2021/11/12 00:22:06;;;;;;;53.47;27.38;;;;;;;17.68;100.00;102091.84;5054883;28;20372;-56
2021/11/12 00:24:32;;;;;;;61.25;28.17;;;;;;;17.51;100.00;102080.66;5053873;28;20055;-54
2021/11/12 00:26:58;;;;;;;55.47;26.77;;;;;;;17.12;100.00;102070.50;5054579;28;20041;-50
2021/11/12 00:29:24;;;;;;;59.40;26.52;;;;;;;17.19;100.00;102070.50;5054345;28;20045;-54
2021/11/12 00:32:39;;;;;;;66.18;31.05;;;;;;;17.29;100.00;102067.38;5054280;28;20049;-56
2021/11/12 00:42:17;;;;;;;50.50;24.80;;;;;;;17.14;100.00;102068.41;5053031;28;20285;-53
2021/11/12 00:44:48;;;;;;;59.57;27.83;;;;;;;17.20;100.00;102064.06;5054034;28;20539;-48
2021/11/12 00:50:07;;;;;;;61.60;28.97;;;;;;;16.75;100.00;102057.41;5054162;28;20285;-51
2021/11/12 00:55:05;;;;;;;61.30;28.83;;;;;;;16.56;100.00;102058.19;5053855;28;20109;-49
2021/11/12 00:57:30;;;;;;;63.33;27.88;;;;;;;16.76;100.00;102055.53;5053084;28;20282;-55
2021/11/12 00:59:56;;;;;;;65.37;29.30;;;;;;;16.84;100.00;102054.47;5052770;28;20527;-51
2021/11/12 01:02:22;;;;;;;55.03;27.92;;;;;;;16.98;100.00;102044.53;5053941;28;20037;-50
2021/11/12 01:04:47;;;;;;;72.40;29.30;;;;;;;16.61;100.00;102045.75;5053642;28;20485;-52
2021/11/12 01:07:13;;;;;;;73.07;29.77;;;;;;;16.36;100.00;102032.00;5053529;28;20098;-52
2021/11/12 01:09:38;;;;;;;64.20;29.05;;;;;;;16.16;100.00;102035.50;5052616;28;20029;-53
2021/11/12 01:12:04;;;;;;;81.43;31.20;;;;;;;16.52;100.00;102043.47;5052747;28;20037;-54
2021/11/12 01:14:30;;;;;;;67.45;30.05;;;;;;;16.73;100.00;102039.75;5036605;28;20043;-53
2021/11/12 01:16:56;;;;;;;70.53;29.33;;;;;;;16.63;100.00;102040.97;5052955;28;20446;-48
2021/11/12 01:19:22;;;;;;;74.60;33.25;;;;;;;16.52;100.00;102038.06;5053330;28;20077;-49
2021/11/12 01:21:47;;;;;;;71.68;30.75;;;;;;;16.87;100.00;102037.88;5053875;28;20041;-49
2021/11/12 01:24:13;;;;;;;77.55;32.38;;;;;;;16.70;100.00;102049.09;5052255;28;20140;-53
2021/11/12 01:26:39;;;;;;;75.70;31.83;;;;;;;16.73;100.00;102053.25;5052464;28;20045;-52
2021/11/12 01:29:05;;;;;;;82.03;33.53;;;;;;;16.83;100.00;102039.31;5053628;28;20041;-47
2021/11/12 01:31:31;;;;;;;79.75;33.53;;;;;;;16.77;100.00;102044.50;5053446;28;20635;-50
2021/11/12 01:34:05;;;;;;;70.20;33.08;;;;;;;16.90;100.00;102045.56;5053183;28;20485;-52
2021/11/12 01:36:33;;;;;;;75.18;33.38;;;;;;;16.92;100.00;102040.78;5036186;28;20094;-51
2021/11/12 01:39:05;;;;;;;74.70;33.03;;;;;;;16.89;100.00;102041.19;5053340;28;20496;-54
2021/11/12 01:41:32;;;;;;;76.68;31.83;;;;;;;16.80;100.00;102034.31;5053690;28;20047;-55
2021/11/12 01:44:02;;;;;;;76.47;32.88;;;;;;;16.73;100.00;102029.75;5052081;28;20048;-52
2021/11/12 01:46:42;;;;;;;73.15;34.35;;;;;;;16.88;100.00;102036.84;5053403;28;20037;-56
2021/11/12 01:49:16;;;;;;;73.35;31.15;;;;;;;16.59;100.00;102025.38;5052208;28;20074;-57
2021/11/12 01:52:07;;;;;;;72.70;31.52;;;;;;;16.54;100.00;102017.91;5052349;28;20041;-55
2021/11/12 01:59:51;;;;;;;80.28;33.92;;;;;;;16.28;100.00;102008.75;5053313;28;20120;-51
2021/11/12 02:02:17;;;;;;;76.95;32.80;;;;;;;16.61;100.00;102004.44;5051181;28;20025;-51
2021/11/12 02:04:42;;;;;;;73.53;31.92;;;;;;;16.40;100.00;102000.88;5051364;28;20398;-54
2021/11/12 02:07:11;;;;;;;73.90;31.33;;;;;;;16.44;100.00;102001.28;5051091;28;20040;-56
2021/11/12 02:09:37;;;;;;;75.82;34.85;;;;;;;15.98;100.00;101992.06;5052645;28;20103;-50
2021/11/12 02:12:17;;;;;;;94.53;36.20;;;;;;;16.29;100.00;101987.97;5052469;28;20113;-48
2021/11/12 02:14:46;;;;;;;78.95;32.90;;;;;;;16.15;100.00;101982.56;5052742;28;20052;-51
2021/11/12 02:17:21;;;;;;;80.72;32.95;;;;;;;16.40;100.00;101979.28;5051194;28;20037;-49
2021/11/12 02:19:51;;;;;;;76.78;31.98;;;;;;;16.55;100.00;101981.78;5055747;28;20033;-53
2021/11/12 02:22:19;;;;;;;79.22;35.42;;;;;;;16.04;100.00;101980.47;5056298;28;20060;-49
2021/11/12 02:24:51;;;;;;;73.85;33.75;;;;;;;16.31;100.00;101973.25;5055184;28;20049;-49
2021/11/12 02:27:20;;;;;;;78.93;34.40;;;;;;;16.15;100.00;101974.47;5089227;28;20049;-55
2021/11/12 02:29:54;;;;;;;90.35;35.08;;;;;;;15.61;100.00;101965.38;5056455;28;20032;-48
2021/11/12 02:32:26;;;;;;;82.65;36.28;;;;;;;15.54;100.00;101959.94;5055499;28;20127;-50
2021/11/12 02:34:55;;;;;;;80.28;34.63;;;;;;;15.86;100.00;101959.44;5054919;28;20409;-49
2021/11/12 02:37:22;;;;;;;73.28;33.70;;;;;;;15.82;100.00;101964.41;5056017;28;20036;-50
2021/11/12 02:39:48;;;;;;;77.10;33.65;;;;;;;16.04;100.00;101959.72;5055124;28;20041;-55
2021/11/12 02:42:13;;;;;;;76.82;34.22;;;;;;;15.83;100.00;101955.25;5055954;28;20044;-53
2021/11/12 02:44:40;;;;;;;87.30;35.65;;;;;;;15.57;100.00;101954.16;5055932;28;20081;-52
2021/11/12 02:47:11;;;;;;;82.93;34.65;;;;;;;15.85;100.00;101949.69;5055754;28;20045;-52
2021/11/12 02:49:38;;;;;;;83.10;33.95;;;;;;;15.68;100.00;101952.75;5055430;28;20043;-52
2021/11/12 02:52:06;;;;;;;80.93;34.10;;;;;;;15.36;100.00;101949.72;5056518;28;20095;-50
2021/11/12 02:54:32;;;;;;;86.00;33.85;;;;;;;15.58;100.00;101955.81;5054514;28;20485;-55
2021/11/12 02:56:59;;;;;;;74.85;33.88;;;;;;;15.74;100.00;101954.63;5055760;28;20127;-53
2021/11/12 02:59:26;;;;;;;87.63;35.75;;;;;;;15.78;100.00;101953.16;5054543;28;20037;-54
2021/11/12 03:01:52;;;;;;;;;;;;;;;15.66;100.00;101945.88;5055056;28;20051;-55
2021/11/12 03:04:19;;;;;;;78.45;33.55;;;;;;;15.36;100.00;101951.56;5071947;28;20327;-55
2021/11/12 03:06:46;;;;;;;71.50;31.10;;;;;;;15.61;100.00;101947.31;5056054;28;20531;-50
2021/11/12 03:09:12;;;;;;;75.45;33.45;;;;;;;15.31;100.00;101944.91;5055804;28;20052;-54
2021/11/12 03:11:40;;;;;;;64.28;30.08;;;;;;;15.98;100.00;101936.25;5054619;28;20094;-54
2021/11/12 03:14:07;;;;;;;74.25;31.95;;;;;;;15.37;100.00;101937.06;5055094;28;20048;-54
2021/11/12 03:16:34;;;;;;;;;;;;;;;15.12;100.00;101930.31;5038445;28;20086;-54
2021/11/12 03:19:01;;;;;;;74.40;31.58;;;;;;;15.16;100.00;101930.75;5055809;28;19915;-52
2021/11/12 03:21:28;;;;;;;72.22;31.77;;;;;;;15.16;100.00;101936.13;5055767;28;20076;-55
2021/11/12 03:24:01;;;;;;;;;;;;;;;15.03;100.00;101926.97;5056054;28;20041;-57
2021/11/12 04:01:34;;;;;;;75.53;32.15;;;;;;;14.73;100.00;101892.16;5053863;28;20067;-52
2021/11/12 04:07:12;;;;;;;75.50;31.98;;;;;;;14.07;100.00;101885.25;5030361;28;20544;-52
2021/11/12 04:20:32;;;;;;;69.45;32.60;;;;;;;13.37;100.00;101849.94;5054260;28;20056;-48
2021/11/12 05:02:45;;;;;;;80.75;32.22;;;;;;;12.93;100.00;101773.81;5054159;28;20049;-53
2021/11/12 05:33:42;;;;;;;106.72;40.17;;;;;;;12.00;100.00;101745.53;5052427;28;20127;-53
2021/11/12 05:44:26;;;;;;;95.15;38.22;;;;;;;11.85;100.00;101742.78;5052556;28;20455;-53
2021/11/12 05:57:38;;;;;;;;;;;;;;;11.62;100.00;101725.75;5019371;28;20080;-54
2021/11/12 06:00:14;;;;;;;79.70;36.22;;;;;;;11.55;100.00;101708.72;5052475;28;19921;-50
2021/11/12 06:02:39;;;;;;;92.53;37.25;;;;;;;12.18;100.00;101716.50;5051618;28;20052;-51
2021/11/12 06:05:05;;;;;;;82.33;36.10;;;;;;;12.04;100.00;101707.44;5051567;28;20029;-52
2021/11/12 06:07:31;;;;;;;83.43;36.20;;;;;;;12.00;100.00;101710.66;5052523;28;20262;-53
2021/11/12 06:09:56;;;;;;;84.57;36.47;;;;;;;12.12;100.00;101717.25;5052569;28;20048;-51
2021/11/12 06:12:27;;;;;;;86.40;36.80;;;;;;;11.84;100.00;101725.88;5051397;28;20099;-51
2021/11/12 06:14:54;;;;;;;87.25;34.50;;;;;;;12.24;100.00;101735.59;5052220;28;20465;-55
2021/11/12 06:17:19;;;;;;;79.47;34.72;;;;;;;11.99;100.00;101744.66;5051317;28;20025;-53
2021/11/12 06:19:45;;;;;;;86.05;35.60;;;;;;;12.07;100.00;101745.63;5051500;28;20041;-54
2021/11/12 06:22:11;;;;;;;95.45;36.75;;;;;;;11.83;100.00;101750.19;5084955;28;20037;-54
2021/11/12 06:24:37;;;;;;;85.40;34.63;;;;;;;12.07;100.00;101742.94;5053026;28;20053;-50
2021/11/12 06:27:04;;;;;;;90.90;37.22;;;;;;;11.85;100.00;101737.44;5084795;28;20033;-52
2021/11/12 06:29:30;;;;;;;90.45;37.83;;;;;;;11.58;100.00;101742.34;5052367;28;20040;-54
2021/11/12 06:31:56;;;;;;;84.75;36.58;;;;;;;11.86;100.00;101734.56;5051737;28;20037;-53
2021/11/12 06:34:21;;;;;;;77.20;31.40;;;;;;;11.91;100.00;101729.50;5052264;28;20033;-53
2021/11/12 06:36:47;;;;;;;84.63;36.97;;;;;;;11.69;100.00;101725.00;5050799;28;20369;-51
2021/11/12 06:39:14;;;;;;;90.33;38.30;;;;;;;11.56;100.00;101733.66;5053088;28;20057;-53
2021/11/12 06:41:54;;;;;;;80.10;34.50;;;;;;;11.81;100.00;101738.81;5051551;28;20099;-52
2021/11/12 06:49:51;;;;;;;83.60;33.88;;;;;;;10.95;100.00;101719.19;5051649;28;20461;-50
2021/11/12 06:52:17;;;;;;;91.38;35.30;;;;;;;10.58;100.00;101704.66;5051339;28;20483;-51
2021/11/12 06:54:45;;;;;;;;;;;;;;;10.59;100.00;101700.97;5051368;28;20087;-51
2021/11/12 06:57:16;;;;;;;91.57;36.80;;;;;;;10.46;100.00;101718.41;5084710;28;19966;-52
2021/11/12 06:59:42;;;;;;;79.25;36.13;;;;;;;10.43;100.00;101712.56;5052406;28;20522;-54
2021/11/12 07:02:09;;;;;;;100.60;37.72;;;;;;;10.31;100.00;101691.53;5052364;28;20119;-50
2021/11/12 07:04:35;;;;;;;97.50;40.75;;;;;;;10.24;100.00;101685.19;5051898;28;20040;-48
2021/11/12 07:07:01;;;;;;;110.18;37.20;;;;;;;10.19;100.00;101693.75;5055727;28;20112;-52
2021/11/12 07:09:26;;;;;;;130.87;42.67;;;;;;;9.99;100.00;101689.78;5054473;28;20041;-50
2021/11/12 07:11:52;;;;;;;104.05;39.80;;;;;;;10.17;100.00;101684.22;5054027;28;20041;-52
2021/11/12 07:14:18;;;;;;;123.53;41.87;;;;;;;10.51;100.00;101682.28;5055523;28;20495;-55
2021/11/12 07:16:44;;;;;;;113.38;44.30;;;;;;;10.83;100.00;101685.78;5055199;28;20477;-50
2021/11/12 07:19:10;;;;;;;124.38;41.40;;;;;;;10.60;100.00;101694.59;5055781;28;20120;-54
2021/11/12 07:21:35;;;;;;;140.13;43.78;;;;;;;10.81;100.00;101706.53;5055012;28;20041;-54
2021/11/12 07:24:02;;;;;;;157.07;45.10;;;;;;;10.47;100.00;101703.19;5037715;28;20496;-56
2021/11/12 07:26:28;;;;;;;141.60;42.55;;;;;;;10.53;100.00;101691.81;5055498;28;20335;-53
2021/11/12 07:28:53;;;;;;;130.95;39.03;;;;;;;11.08;100.00;101696.38;5037805;28;20382;-52
2021/11/12 07:31:19;;;;;;;119.55;42.70;;;;;;;11.05;100.00;101693.00;5054503;28;20045;-53
2021/11/12 07:33:47;;;;;;;182.23;44.10;;;;;;;11.13;100.00;101688.63;5054541;28;20385;-55
2021/11/12 07:36:24;;;;;;;155.52;42.30;;;;;;;10.95;100.00;101668.34;5055628;28;20044;-53
2021/11/12 07:39:00;;;;;;;151.93;40.97;;;;;;;10.56;100.00;101671.91;5054883;28;20545;-51
2021/11/12 07:44:21;;;;;;;161.52;41.53;;;;;;;10.85;100.00;101673.09;5054774;28;20091;-53
2021/11/12 07:46:59;;;;;;;128.35;36.92;;;;;;;10.47;100.00;101682.66;5055333;28;20101;-53
2021/11/12 07:49:25;;;;;;;158.60;41.42;;;;;;;10.12;100.00;101674.03;5054159;28;20041;-54
2021/11/12 07:51:52;;;;;;;161.18;40.97;;;;;;;10.42;100.00;101685.00;5054589;28;20341;-54
2021/11/12 07:54:18;;;;;;;157.50;41.30;;;;;;;10.80;100.00;101675.44;5054740;28;20035;-53
2021/11/12 07:56:45;;;;;;;187.20;43.90;;;;;;;10.54;100.00;101690.81;5054565;28;20127;-52
2021/11/12 07:59:10;;;;;;;;;;;;;;;10.64;100.00;101687.06;5055290;28;20045;-52
2021/11/12 08:01:36;;;;;;;128.37;34.97;;;;;;;10.42;100.00;101686.84;5054949;28;20360;-54
2021/11/12 08:04:03;;;;;;;149.60;37.13;;;;;;;10.34;100.00;101685.00;5053361;28;20057;-54
2021/11/12 08:06:30;;;;;;;144.20;37.30;;;;;;;10.61;100.00;101694.44;5055216;28;20033;-51
2021/11/12 08:09:05;;;;;;;190.10;43.95;;;;;;;10.52;100.00;101681.28;5052917;28;20338;-54
2021/11/12 08:11:44;;;;;;;139.85;39.72;;;;;;;10.62;100.00;101689.94;5053619;28;20469;-54
2021/11/12 08:15:01;;;;;;;128.48;38.05;;;;;;;10.46;100.00;101689.00;5053049;28;20041;-53
2021/11/12 08:17:19;;;;;;;140.63;42.33;;;;;;;10.78;100.00;101678.31;5053183;28;20057;-51
2021/11/12 08:19:49;;;;;;;123.38;38.83;;;;;;;10.73;100.00;101662.78;5053384;28;20072;-54
2021/11/12 08:24:49;;;;;;;125.95;39.63;;;;;;;10.88;100.00;101672.75;5054055;28;20045;-54
2021/11/12 08:35:22;;;;;;;108.45;38.78;;;;;;;11.57;100.00;101657.63;5052679;28;20041;-53
2021/11/12 08:40:52;;;;;;;104.80;41.35;;;;;;;11.47;100.00;101641.81;5053016;28;20329;-51
2021/11/12 08:43:40;;;;;;;98.45;39.33;;;;;;;11.11;100.00;101637.94;5053789;28;20048;-54
2021/11/12 08:51:37;;;;;;;94.70;38.17;;;;;;;11.66;100.00;101631.59;5044226;28;20526;-53
2021/11/12 08:54:04;;;;;;;90.28;35.75;;;;;;;11.20;100.00;101633.34;5053750;28;20103;-54
2021/11/12 08:56:30;;;;;;;102.50;39.30;;;;;;;11.75;100.00;101622.44;5053835;28;20037;-51
2021/11/12 08:58:56;;;;;;;102.25;38.78;;;;;;;11.55;100.00;101625.69;5053664;28;20128;-49
2021/11/12 09:01:21;;;;;;;102.82;37.72;;;;;;;11.82;100.00;101636.81;5053631;28;20120;-53
2021/11/12 09:03:48;;;;;;;91.93;39.60;;;;;;;12.43;100.00;101622.34;5051884;28;20110;-52
2021/11/12 09:06:14;;;;;;;;;;;;;;;11.95;100.00;101609.34;5052608;28;20053;-55
2021/11/12 09:08:39;;;;;;;87.13;37.20;;;;;;;11.65;100.00;101589.75;5052214;28;19942;-54
2021/11/12 09:11:07;;;;;;;82.53;35.78;;;;;;;11.39;100.00;101580.31;5053452;28;20033;-49
2021/11/12 09:13:47;;;;;;;77.38;34.42;;;;;;;11.46;100.00;101571.38;5052265;28;20052;-54
2021/11/12 09:16:15;;;;;;;87.88;36.97;;;;;;;11.64;100.00;101580.06;5052215;28;20037;-51
2021/11/12 09:18:48;;;;;;;77.10;33.55;;;;;;;11.70;100.00;101587.34;5053176;28;20052;-54
2021/11/12 09:21:15;;;;;;;76.35;34.55;;;;;;;11.71;100.00;101591.69;5053459;28;20081;-57
2021/11/12 09:23:41;;;;;;;70.72;31.48;;;;;;;12.51;100.00;101591.06;5052238;28;20036;-53
2021/11/12 09:26:07;;;;;;;75.85;33.38;;;;;;;13.00;100.00;101589.47;5052521;28;20055;-54
2021/11/12 09:28:33;;;;;;;70.32;31.60;;;;;;;12.77;100.00;101599.38;5052737;28;20493;-54
2021/11/12 09:31:01;;;;;;;74.22;31.50;;;;;;;12.68;100.00;101613.94;5051992;28;20506;-51
2021/11/12 09:33:26;;;;;;;66.28;28.15;;;;;;;13.30;100.00;101605.44;5051990;28;20049;-55
2021/11/12 09:35:52;;;;;;;64.43;29.27;;;;;;;13.39;100.00;101600.75;5052679;28;20048;-53
2021/11/12 09:38:18;;;;;;;67.67;29.13;;;;;;;13.34;100.00;101596.75;5052916;28;20084;-54
2021/11/12 09:40:44;;;;;;;55.03;26.77;;;;;;;14.55;100.00;101590.38;5053122;28;20107;-54
2021/11/12 09:43:09;;;;;;;56.47;25.23;;;;;;;14.53;98.73;101584.31;5052953;28;20076;-53
2021/11/12 09:45:35;;;;;;;44.63;24.48;;;;;;;15.21;91.47;101578.00;5051962;28;20041;-51
2021/11/12 09:48:01;;;;;;;52.90;22.45;;;;;;;15.67;82.01;101588.91;5051476;28;20045;-50
2021/11/12 09:50:31;;;;;;;53.70;26.38;;;;;;;16.34;77.55;101605.72;5052541;28;20037;-53
2021/11/12 09:52:59;;;;;;;45.73;23.60;;;;;;;16.35;74.77;101609.25;5052926;28;20037;-51
2021/11/12 09:55:26;;;;;;;50.03;22.90;;;;;;;16.91;70.04;101609.53;5053168;28;20274;-49
2021/11/12 09:57:52;;;;;;;44.23;22.20;;;;;;;16.93;67.56;101604.75;5052758;28;20278;-54
2021/11/12 10:00:22;;;;;;;47.05;23.70;;;;;;;17.60;63.61;101600.63;5051283;28;20272;-55
2021/11/12 10:02:50;;;;;;;44.57;21.77;;;;;;;18.04;61.25;101581.66;5053226;28;20358;-51
2021/11/12 10:05:31;;;;;;;42.40;21.97;;;;;;;17.40;63.20;101576.53;5035266;28;20718;-53
2021/11/12 10:07:58;;;;;;;43.40;22.30;;;;;;;17.50;63.12;101571.41;5051600;28;20293;-55
2021/11/12 10:10:24;;;;;;;41.67;20.63;;;;;;;17.89;61.51;101566.59;5052906;28;20344;-53
2021/11/12 10:12:51;;;;;;;50.13;21.88;;;;;;;19.65;54.07;101566.66;5052408;28;20315;-54
2021/11/12 10:15:24;;;;;;;36.00;20.00;;;;;;;18.82;54.75;101565.56;5052357;28;20457;-52
2021/11/12 10:17:51;;;;;;;38.93;21.37;;;;;;;18.35;57.09;101552.72;5052422;28;20480;-54
2021/11/12 10:20:20;;;;;;;39.97;20.13;;;;;;;18.69;55.51;101547.66;5052469;28;20336;-53
2021/11/12 10:22:48;;;;;;;37.07;20.53;;;;;;;18.98;54.64;101541.53;5051242;28;20326;-53
2021/11/12 10:25:15;;;;;;;43.47;22.63;;;;;;;18.59;55.00;101537.38;5052824;28;20372;-53
2021/11/12 10:27:46;;;;;;;42.83;21.40;;;;;;;18.97;54.84;101540.72;5052428;28;20266;-52
2021/11/12 10:30:23;;;;;;;38.70;21.73;;;;;;;18.73;55.72;101535.28;5052327;28;20285;-50
2021/11/12 10:32:53;;;;;;;37.63;20.43;;;;;;;19.47;52.94;101534.00;5052493;28;20746;-54
2021/11/12 10:35:25;;;;;;;41.20;20.53;;;;;;;19.54;52.62;101544.72;5050965;28;20647;-53
2021/11/12 10:37:52;;;;;;;37.70;19.47;;;;;;;19.43;52.19;101521.16;5052091;28;20734;-54
2021/11/12 10:40:20;;;;;;;;;;;;;;;19.31;52.50;101513.03;5055367;28;20274;-54
2021/11/12 10:42:49;;;;;;;35.97;20.67;;;;;;;19.53;52.11;101513.22;5056000;28;20283;-54
2021/11/12 10:45:19;;;;;;;39.33;20.53;;;;;;;19.57;51.86;101516.28;5056236;28;20722;-53
2021/11/12 10:47:50;;;;;;;42.60;20.53;;;;;;;19.31;52.38;101530.13;5054793;28;20265;-55
2021/11/12 10:50:17;;;;;;;37.37;20.33;;;;;;;18.98;53.06;101533.41;5055898;28;20284;-52
2021/11/12 10:52:43;;;;;;;41.10;22.37;;;;;;;19.54;52.24;101523.00;5055937;28;20306;-51
2021/11/12 10:55:23;;;;;;;48.17;21.42;;;;;;;20.87;48.14;101533.88;5054628;28;20293;-53
2021/11/12 10:58:01;;;;;;;36.13;21.37;;;;;;;21.15;46.84;101523.16;5055941;28;20047;-55
2021/11/12 11:00:47;;;;;;;44.57;21.70;;;;;;;21.70;45.34;101507.03;5071757;28;20376;-53
2021/11/12 11:03:19;;;;;;;38.50;21.07;;;;;;;21.74;44.36;101500.00;5055703;28;20061;-50
2021/11/12 11:05:46;;;;;;;38.73;21.60;;;;;;;22.35;43.62;101491.63;5055507;28;20270;-54
2021/11/12 11:08:14;;;;;;;37.43;20.77;;;;;;;22.25;42.76;101496.94;5055661;28;20456;-54
2021/11/12 11:10:47;;;;;;;40.23;20.90;;;;;;;22.67;42.70;101490.00;5055593;28;20104;-49
2021/11/12 11:13:19;;;;;;;36.90;20.20;;;;;;;22.75;41.74;101489.50;5054161;28;20040;-55
2021/11/12 11:15:51;;;;;;;36.20;19.57;;;;;;;23.06;40.54;101484.22;5054506;28;20531;-49
2021/11/12 11:18:26;;;;;;;37.40;20.37;;;;;;;23.22;40.46;101492.50;5054099;28;20041;-54
2021/11/12 11:20:51;;;;;;;31.70;18.83;;;;;;;23.55;39.13;101479.56;5054119;28;20079;-54
2021/11/12 11:23:19;;;;;;;33.60;19.77;;;;;;;24.00;37.82;101479.94;5054151;28;20068;-51
2021/11/12 11:25:50;;;;;;;37.20;19.60;;;;;;;22.52;40.31;101477.06;5054511;28;20052;-50
2021/11/12 11:28:16;;;;;;;34.83;17.77;;;;;;;21.32;42.63;101468.69;5055803;28;20039;-50
2021/11/12 11:30:44;;;;;;;33.05;19.17;;;;;;;21.57;42.62;101460.03;5053961;28;20120;-55
2021/11/12 11:33:11;;;;;;;34.37;19.77;;;;;;;20.92;44.23;101446.16;5055472;28;20543;-53
2021/11/12 11:35:37;;;;;;;34.23;19.67;;;;;;;19.98;46.42;101437.59;5053951;28;20139;-56
2021/11/12 11:38:04;;;;;;;39.45;20.45;;;;;;;20.02;46.87;101446.88;5055234;28;20126;-53
2021/11/12 11:40:30;;;;;;;35.73;19.17;;;;;;;19.94;47.53;101429.09;5054583;28;20117;-54
2021/11/12 11:42:56;;;;;;;;;;;;;;;19.79;48.77;101432.34;5055993;28;20045;-54
2021/11/12 11:45:21;;;;;;;33.43;19.47;;;;;;;20.98;47.03;101417.97;5054687;28;19920;-51
2021/11/12 11:47:47;;;;;;;37.65;19.20;;;;;;;20.85;46.05;101418.34;5054874;28;20362;-50
2021/11/12 11:50:31;;;;;;;41.20;19.23;;;;;;;19.54;49.13;101409.09;5054614;28;20045;-55
2021/11/12 11:53:22;;;;;;;37.47;19.90;;;;;;;20.37;48.44;101396.97;5053562;28;20064;-56
2021/11/12 11:55:47;;;;;;;35.70;19.40;;;;;;;20.45;48.07;101399.25;5053090;28;20305;-54
2021/11/12 11:58:33;;;;;;;37.80;20.40;;;;;;;18.60;52.79;101391.91;5054428;28;20254;-54
2021/11/12 12:01:22;;;;;;;38.17;19.97;;;;;;;18.15;55.62;101387.91;5054707;28;20063;-53
2021/11/12 12:04:10;;;;;;;36.30;20.30;;;;;;;18.13;56.32;101393.53;5050344;28;20676;-52
2021/11/12 12:07:04;;;;;;;36.73;19.37;;;;;;;18.55;54.90;101383.69;5055164;28;20274;-52
2021/11/12 12:09:38;;;;;;;39.30;19.83;;;;;;;18.22;56.67;101383.19;5053616;28;20285;-54
2021/11/12 12:12:04;;;;;;;40.33;19.77;;;;;;;18.21;56.86;101384.25;5053748;28;20313;-55
2021/11/12 12:14:32;;;;;;;38.28;19.02;;;;;;;18.38;56.67;101380.88;5053252;28;20681;-52
2021/11/12 12:17:10;;;;;;;42.00;19.87;;;;;;;18.00;57.32;101377.50;5054903;28;20036;-50
2021/11/12 12:19:54;;;;;;;37.77;19.57;;;;;;;18.33;56.85;101370.72;5054002;28;20274;-53
2021/11/12 12:34:39;;;;;;;36.73;18.77;;;;;;;17.84;59.22;101362.72;5054206;28;20254;-52
2021/11/12 13:23:05;;;;;;;50.87;23.07;;;;;;;16.76;78.49;101296.56;5052059;28;20285;-53
2021/11/12 13:25:35;;;;;;;37.97;21.27;;;;;;;16.89;76.17;101282.06;5053045;28;20290;-51
2021/11/12 13:28:04;;;;;;;43.70;22.20;;;;;;;17.00;77.74;101270.50;5052153;28;20365;-54
2021/11/12 13:30:29;;;;;;;41.50;21.13;;;;;;;16.42;81.92;101264.53;5052848;28;20376;-53
2021/11/12 13:32:55;;;;;;;43.03;23.73;;;;;;;16.56;82.84;101261.66;5052799;28;20349;-55
2021/11/12 13:35:36;;;;;;;38.77;21.17;;;;;;;16.23;86.00;101260.16;5053269;28;20048;-54
2021/11/12 13:38:04;;;;;;;41.50;20.63;;;;;;;16.15;88.27;101251.31;5052819;28;20274;-53
2021/11/12 13:40:34;;;;;;;42.97;21.83;;;;;;;16.44;86.36;101256.19;5052949;28;20808;-51
2021/11/12 13:43:00;;;;;;;51.73;24.57;;;;;;;16.29;89.80;101248.47;5052832;28;20353;-52
2021/11/12 13:45:27;;;;;;;;;;;;;;;16.76;84.08;101253.34;5053470;28;20258;-54
2021/11/12 13:48:11;;;;;;;43.40;23.17;;;;;;;16.46;88.03;101244.13;5052625;28;19943;-53
2021/11/12 13:51:02;;;;;;;39.93;23.00;;;;;;;15.90;91.88;101241.34;5052749;28;20286;-53
2021/11/12 13:53:30;;;;;;;52.03;24.20;;;;;;;16.22;90.64;101231.53;5052893;28;20714;-49
2021/11/12 13:55:57;;;;;;;49.90;22.33;;;;;;;16.09;91.69;101227.91;5052573;28;20045;-52
2021/11/12 13:58:25;;;;;;;45.93;24.00;;;;;;;15.77;95.31;101214.50;5052528;28;20349;-54
2021/11/12 14:00:53;;;;;;;44.13;23.50;;;;;;;16.01;93.63;101214.72;5052329;28;20754;-54
2021/11/12 14:03:38;;;;;;;49.63;24.80;;;;;;;15.93;96.15;101215.03;5052555;28;20277;-53
2021/11/12 14:06:09;;;;;;;47.93;24.73;;;;;;;15.90;96.54;101209.00;5051651;28;20308;-56
2021/11/12 14:09:02;;;;;;;50.00;26.13;;;;;;;15.80;98.87;101203.25;5052895;28;20274;-55
2021/11/12 14:11:29;;;;;;;53.03;25.23;;;;;;;16.41;92.61;101200.81;5051290;28;20757;-55
2021/11/12 14:14:04;;;;;;;51.20;25.60;;;;;;;15.88;98.66;101194.06;5052958;28;20262;-52
2021/11/12 14:16:51;;;;;;;49.33;25.80;;;;;;;15.99;98.59;101190.66;5057243;28;20064;-55
2021/11/12 14:22:05;;;;;;;49.75;25.27;;;;;;;16.00;99.75;101188.78;5055730;28;20041;-53
2021/11/12 14:30:20;;;;;;;49.33;25.77;;;;;;;15.85;100.00;101181.84;5055034;28;20061;-53
2021/11/12 14:55:05;;;;;;;46.47;24.27;;;;;;;15.68;100.00;101143.00;5054320;28;20089;-51
2021/11/12 14:57:37;;;;;;;52.35;23.58;;;;;;;16.01;100.00;101139.19;5055706;28;20414;-53
2021/11/12 15:00:14;;;;;;;46.30;24.30;;;;;;;15.89;100.00;101144.50;5055810;28;20377;-53
2021/11/12 15:02:41;;;;;;;51.85;25.33;;;;;;;15.67;100.00;101144.06;5055721;28;20044;-51
2021/11/12 15:05:09;;;;;;;48.30;25.13;;;;;;;15.57;100.00;101126.53;5053974;28;20041;-48
2021/11/12 15:07:44;;;;;;;50.27;24.50;;;;;;;15.32;100.00;101121.13;5055221;28;20772;-51
2021/11/12 15:10:16;;;;;;;52.63;24.65;;;;;;;15.59;100.00;101110.94;5055987;28;20752;-54
2021/11/12 15:12:47;;;;;;;47.90;24.67;;;;;;;15.57;100.00;101110.34;5054464;28;20040;-51
2021/11/12 15:15:13;;;;;;;45.78;22.92;;;;;;;15.61;100.00;101111.56;5055652;28;20064;-54
2021/11/12 15:17:40;;;;;;;52.28;24.50;;;;;;;15.72;100.00;101114.56;5055369;28;20073;-48
2021/11/12 15:20:06;;;;;;;48.13;24.08;;;;;;;16.09;100.00;101117.31;5055329;28;20041;-54
2021/11/12 15:33:34;;;;;;;47.60;22.83;;;;;;;15.85;100.00;101106.34;5055468;28;20116;-51
2021/11/12 15:36:04;;;;;;;51.20;23.87;;;;;;;15.72;100.00;101104.59;5055283;28;20049;-51
2021/11/12 15:41:02;;;;;;;50.57;25.07;;;;;;;16.18;100.00;101085.44;5054989;28;20131;-54
2021/11/12 15:43:39;;;;;;;48.10;24.45;;;;;;;15.96;100.00;101077.81;5053698;28;20179;-50
2021/11/12 15:46:11;;;;;;;50.25;23.00;;;;;;;15.83;100.00;101081.47;5055476;28;20045;-49
2021/11/12 15:48:39;;;;;;;45.20;22.83;;;;;;;15.57;100.00;101061.84;5054226;28;20195;-51
2021/11/12 16:13:18;;;;;;;51.95;25.05;;;;;;;15.41;100.00;101065.09;5052704;28;20052;-53
2021/11/12 16:20:39;;;;;;;44.30;23.17;;;;;;;15.43;100.00;101055.75;5054042;28;20076;-53
2021/11/12 16:25:41;;;;;;;47.35;21.95;;;;;;;15.29;100.00;101046.16;5053744;28;20121;-53
2021/11/12 16:28:09;;;;;;;43.35;22.75;;;;;;;15.34;100.00;101049.03;5054164;28;20392;-54
2021/11/12 16:30:37;;;;;;;40.75;21.95;;;;;;;15.37;100.00;101050.44;5054078;28;20539;-51
2021/11/12 16:33:04;;;;;;;42.60;20.67;;;;;;;15.57;100.00;101045.66;5053412;28;20106;-51
2021/11/12 16:35:34;;;;;;;46.97;23.27;;;;;;;14.95;100.00;101035.66;5053628;28;20029;-54
2021/11/12 16:38:06;;;;;;;48.55;23.45;;;;;;;15.14;100.00;101038.41;5052621;28;20077;-55
2021/11/12 16:40:41;;;;;;;42.55;19.90;;;;;;;15.28;100.00;101039.94;5051969;28;20404;-57
2021/11/12 16:43:21;;;;;;;43.55;20.63;;;;;;;15.24;100.00;101044.13;5054386;28;20049;-55